Latest Coastal Weather Observations for Swanbourne

IDW60701

Issued at 1:35 pm WST Saturday 23 August 2014 (issued every 10 minutes, with the page automatically refreshed every 10 minutes)

About coastal observations | Map of coastal stations | Coastal observations for WA | Marine services | Other Formats
Station Details ID: 009215 Name: SWANBOURNE Lat: -31.96 Lon: 115.76 Height: 40.96 m
Data from the previous 72 hours. | See also: Recent months at Swanbourne
Date/Time
WST
Temp

°C
Wind Pressure Rain
since 9am
mm
Weather Cloud Vis
km
Sea
Height
m
Swell
Dir
 
Speed
knots
Gust
knots
hPa Trend Height
m
Period
s
Dir
23/01:30pm 19.5 W 9 13 - - 0.0 - - - - - - -
23/01:00pm 20.0 W 9 13 - - 0.0 - - - - - - -
23/12:30pm 21.5 NW 6 9 - - 0.0 - - - - - - -
23/12:00pm 21.4 NW 6 10 - - 0.0 - - - - - - -
23/11:30am 20.7 NNW 6 11 - - 0.0 - - - - - - -
23/11:00am 20.1 NE 4 8 - - 0.0 - - - - - - -
23/10:30am 18.1 ENE 5 7 - - 0.0 - - - - - - -
23/10:00am 16.5 ENE 5 8 - - 0.0 - - - - - - -
23/09:30am 14.6 ENE 7 10 - - 0.0 - - - - - - -
23/09:00am 13.2 E 8 11 - - 0.2 - - - - - - -
23/08:30am 11.7 ENE 7 10 - - 0.2 - - - - - - -
23/08:00am 9.8 E 5 8 - - 0.2 - - - - - - -
23/07:30am 8.5 ENE 2 5 - - 0.2 - - - - - - -
23/07:00am 8.0 SSW 1 3 - - 0.2 - - - - - - -
23/06:30am 8.0 ESE 1 3 - - 0.2 - - - - - - -
23/06:00am 8.1 CALM 0 3 - - 0.2 - - - - - - -
23/05:30am 8.8 NE 1 5 - - 0.2 - - - - - - -
23/05:00am 9.3 E 5 6 - - 0.2 - - - - - - -
23/04:30am 9.7 E 5 7 - - 0.2 - - - - - - -
23/04:00am 10.2 E 5 6 - - 0.2 - - - - - - -
23/03:30am 10.3 ENE 6 7 - - 0.2 - - - - - - -
23/03:00am 10.1 E 5 5 - - 0.2 - - - - - - -
23/02:30am 9.8 ENE 5 6 - - 0.2 - - - - - - -
23/02:00am 9.8 ENE 5 6 - - 0.2 - - - - - - -
23/01:30am 10.0 ENE 5 6 - - 0.2 - - - - - - -
23/01:00am 10.3 E 5 6 - - 0.2 - - - - - - -
23/12:30am 10.8 E 5 6 - - 0.2 - - - - - - -
23/12:00am 11.3 E 5 6 - - 0.2 - - - - - - -
 
Date/Time
WST
Temp

°C
Wind Pressure Rain
since 9am
mm
Weather Cloud Vis
km
Sea
Height
m
Swell
Dir
 
Speed
knots
Gust
knots
hPa Trend Height
m
Period
s
Dir
22/11:30pm 11.5 E 6 6 - - 0.2 - - - - - - -
22/11:00pm 11.9 E 5 6 - - 0.2 - - - - - - -
22/10:30pm 12.2 E 5 5 - - 0.2 - - - - - - -
22/10:00pm 12.6 E 5 6 - - 0.2 - - - - - - -
22/09:30pm 12.9 ESE 5 6 - - 0.2 - - - - - - -
22/09:00pm 13.1 ESE 4 5 - - 0.2 - - - - - - -
22/08:30pm 13.3 SE 4 4 - - 0.2 - - - - - - -
22/08:00pm 13.2 SE 3 4 - - 0.2 - - - - - - -
22/07:30pm 12.6 S 4 5 - - 0.2 - - - - - - -
22/07:00pm 12.7 S 4 5 - - 0.2 - - - - - - -
22/06:30pm 13.2 S 4 5 - - 0.2 - - - - - - -
22/06:00pm 14.1 SSW 4 5 - - 0.2 - - - - - - -
22/05:30pm 15.7 SW 4 5 - - 0.2 - - - - - - -
22/05:00pm 16.9 SW 5 7 - - 0.2 - - - - - - -
22/04:30pm 17.8 SW 5 7 - - 0.2 - - - - - - -
22/04:00pm 18.0 WSW 6 9 - - 0.2 - - - - - - -
22/03:30pm 18.3 WSW 7 10 - - 0.2 - - - - - - -
22/03:00pm 18.4 WSW 7 9 - - 0.2 - - - - - - -
22/02:30pm 18.8 WSW 6 9 - - 0.2 - - - - - - -
22/02:00pm 18.6 WSW 7 10 - - 0.2 - - - - - - -
22/01:30pm 19.1 SW 6 9 - - 0.2 - - - - - - -
22/01:00pm 18.9 SW 6 10 - - 0.2 - - - - - - -
22/12:30pm 18.8 SW 7 10 - - 0.2 - - - - - - -
22/12:00pm 18.0 SSW 7 11 - - 0.2 - - - - - - -
22/11:30am 18.1 SSW 6 12 - - 0.2 - - - - - - -
22/11:00am 19.6 SSW 4 7 - - 0.2 - - - - - - -
22/10:30am 16.3 WSW 5 9 - - 0.2 - - - - - - -
22/10:00am 16.4 SW 7 12 - - 0.2 - - - - - - -
22/09:30am 16.6 S 5 10 - - 0.2 - - - - - - -
22/09:00am 16.6 SSW 7 15 - - 3.2 - - - - - - -
22/08:30am 16.7 SW 9 14 - - 3.2 - - - - - - -
22/08:00am 16.0 SW 9 13 - - 3.2 - - - - - - -
22/07:30am 15.4 WSW 11 17 - - 3.2 - - - - - - -
22/07:00am 15.3 WSW 12 17 - - 3.2 - - - - - - -
22/06:30am 15.5 WSW 14 20 - - 3.2 - - - - - - -
22/06:00am 15.7 WSW 14 20 - - 3.2 - - - - - - -
22/05:30am 15.8 WSW 15 21 - - 3.2 - - - - - - -
22/05:00am 15.7 WSW 15 21 - - 3.2 - - - - - - -
22/04:30am 15.8 WSW 15 22 - - 3.2 - - - - - - -
22/04:00am 15.5 SW 16 26 - - 3.2 - - - - - - -
22/03:58am 15.4 SW 16 26 - - 3.2 - - - - - - -
22/03:30am 15.8 W 14 19 - - 3.2 - - - - - - -
22/03:00am 15.9 W 15 23 - - 3.2 - - - - - - -
22/02:30am 15.2 WSW 18 25 - - 3.2 - - - - - - -
22/02:00am 16.4 W 16 23 - - 3.2 - - - - - - -
22/01:30am 15.9 W 15 20 - - 3.2 - - - - - - -
22/01:00am 15.9 W 15 22 - - 3.2 - - - - - - -
22/12:30am 15.9 W 16 23 - - 3.2 - - - - - - -
22/12:00am 15.9 W 17 26 - - 3.2 Recent precip. - - - - - -
 
Date/Time
WST
Temp

°C
Wind Pressure Rain
since 9am
mm
Weather Cloud Vis
km
Sea
Height
m
Swell
Dir
 
Speed
knots
Gust
knots
hPa Trend Height
m
Period
s
Dir
21/11:30pm 14.7 W 17 25 - - 3.2 - - - - - - -
21/11:01pm 16.1 WNW 15 26 - - 2.6 - - - - - - -
21/11:00pm 16.0 WNW 14 21 - - 2.6 - - - - - - -
21/10:30pm 16.1 W 15 21 - - 2.6 - - - - - - -
21/10:00pm 16.8 WNW 14 20 - - 2.6 - - - - - - -
21/09:30pm 16.3 WNW 12 18 - - 2.6 - - - - - - -
21/09:00pm 15.9 W 10 15 - - 2.6 - - - - - - -
21/08:30pm 16.6 WNW 12 18 - - 2.6 - - - - - - -
21/08:00pm 16.3 WNW 11 17 - - 2.6 - - - - - - -
21/07:30pm 16.0 WNW 10 14 - - 2.4 - - - - - - -
21/07:00pm 16.1 NW 9 14 - - 2.4 - - - - - - -
21/06:30pm 15.4 WNW 10 17 - - 2.4 - - - - - - -
21/06:00pm 15.6 WNW 8 12 - - 2.4 - - - - - - -
21/05:30pm 14.9 NW 8 11 - - 2.4 - - - - - - -
21/05:00pm 15.0 NW 6 9 - - 2.4 - - - - - - -
21/04:30pm 15.2 WSW 12 18 - - 2.2 - - - - - - -
21/04:00pm 15.4 NW 7 10 - - 1.6 - - - - - - -
21/03:30pm 15.3 W 7 9 - - 1.0 - - - - - - -
21/03:00pm 15.7 W 14 20 - - 0.4 Recent precip. - - - - - -
21/02:30pm 16.9 W 11 15 - - 0.0 - - - - - - -
21/02:17pm 18.4 NW 15 27 - - 0.0 - - - - - - -
21/02:00pm 19.0 NW 15 22 - - 0.0 - - - - - - -
21/01:30pm 19.6 NW 14 19 - - 0.0 - - - - - - -
21/01:00pm 21.1 NW 14 21 - - 0.0 - - - - - - -
21/12:30pm 20.6 NW 12 17 - - 0.0 - - - - - - -
21/12:00pm 20.6 NW 12 17 - - 0.0 - - - - - - -
21/11:30am 20.2 WNW 13 18 - - 0.0 - - - - - - -
21/11:00am 19.2 W 14 21 - - 0.0 - - - - - - -
21/10:30am 18.8 W 15 22 - - 0.0 - - - - - - -
21/10:00am 18.8 W 15 24 - - 0.0 - - - - - - -
21/09:30am 18.9 W 16 22 - - 0.0 - - - - - - -
21/09:00am 18.5 WNW 16 21 - - 7.0 Recent precip. - - - - - -
21/08:30am 17.9 WNW 14 19 - - 7.0 - - - - - - -
21/08:00am 17.4 W 17 24 - - 6.8 - - - - - - -
21/07:30am 17.0 W 17 25 - - 6.8 - - - - - - -
21/07:00am 17.0 W 17 25 - - 6.8 - - - - - - -
21/06:30am 16.5 NNW 15 28 - - 6.2 - - - - - - -
21/06:19am 16.4 NNW 16 27 - - 5.6 - - - - - - -
21/06:00am 16.3 N 13 22 - - 5.0 Rain - - - - - -
21/05:30am 16.1 N 11 18 - - 4.6 - - - - - - -
21/05:00am 16.0 N 10 18 - - 4.0 - - - - - - -
21/04:30am 17.1 N 13 23 - - 3.6 - - - - - - -
21/04:00am 17.0 N 11 20 - - 3.6 - - - - - - -
21/03:30am 17.0 N 11 17 - - 3.6 - - - - - - -
21/03:00am 17.2 N 14 21 - - 3.6 - - - - - - -
21/02:30am 16.8 N 11 18 - - 3.6 - - - - - - -
21/02:00am 16.8 N 12 21 - - 3.6 - - - - - - -
21/01:30am 16.0 N 8 14 - - 3.6 - - - - - - -
21/01:00am 15.9 N 9 14 - - 3.6 - - - - - - -
21/12:30am 15.8 N 9 15 - - 3.6 - - - - - - -
21/12:00am 15.8 N 9 15 - - 3.6 - - - - - - -
 
Date/Time
WST
Temp

°C
Wind Pressure Rain
since 9am
mm
Weather Cloud Vis
km
Sea
Height
m
Swell
Dir
 
Speed
knots
Gust
knots
hPa Trend Height
m
Period
s
Dir
20/11:30pm 15.7 N 10 15 - - 3.6 - - - - - - -
20/11:00pm 15.7 N 8 12 - - 3.6 - - - - - - -
20/10:30pm 15.6 NNE 7 10 - - 3.6 - - - - - - -
20/10:00pm 16.1 N 6 10 - - 3.6 - - - - - - -
20/09:30pm 16.4 N 7 11 - - 3.6 - - - - - - -
20/09:00pm 16.6 N 7 14 - - 3.6 - - - - - - -
20/08:30pm 16.7 N 6 10 - - 3.6 - - - - - - -
20/08:00pm 17.9 NNW 8 13 - - 3.6 - - - - - - -
20/07:30pm 17.7 NNW 12 16 - - 3.6 - - - - - - -
20/07:00pm 17.4 NNW 10 15 - - 3.6 - - - - - - -
20/06:30pm 17.3 NNW 8 14 - - 3.6 - - - - - - -
20/06:00pm 17.1 NNW 7 11 - - 3.6 - - - - - - -
20/05:30pm 17.4 NNW 9 14 - - 3.6 - - - - - - -
20/05:00pm 17.7 NNW 11 15 - - 3.6 - - - - - - -
20/04:30pm 18.1 NNW 9 12 - - 3.6 - - - - - - -
20/04:00pm 18.1 NNW 10 13 - - 3.6 - - - - - - -
20/03:30pm 17.7 N 7 10 - - 3.6 - - - - - - -
20/03:00pm 18.4 NNW 9 12 - - 3.6 - - - - - - -
20/02:30pm 17.5 N 6 10 - - 3.6 - - - - - - -
20/02:00pm 17.3 NNW 7 9 - - 3.6 - - - - - - -

Other Formats:

Comma delimited format used in spreadsheet applications
http://www.bom.gov.au/fwo/IDW60701/IDW60701.94614.axf

JavaScript Object Notation format (JSON) in row-major order
http://www.bom.gov.au/fwo/IDW60701/IDW60701.94614.json